PWSweather.com
Personal Weather Stations
Station Observations

AwhituWaiuku, CA 268400

Lat: -37.058, Lon: -174.6346

Elevation: 250

Station Type: Personal

http://www.weather-display.com/windy/gb/grahamsbeach.htm

Latest ConditionsUpdated 5:00:13 PM GMT-12:48 Friday, Dec 19, 2014
Currently Today's Max Today's Min Today's Average
Temperature 68.2°F20.1°C 71.0°F21.7°C 62.0°F16.7°C 66.3°F19.1°C
Dew Point 64.2°F17.9°C 70.4°F21.3°C 61.4°F16.3°C 65.2°F18.4°C
Winds 5.8 mph NNE9.3 kmh NNE 16.1 mph NNE25.9 kmh NNE - 5.7 mph 9.2 kmh
Wind Gusts 12.7 mph20.4 kmh 17.3 mph27.8 kmh - -
Humidity 87% 98% 81% 96%
Pressure 29.87 in1011.5 mb 30.06 in1017.9 mb 29.87 in1011.5 mb -
Precipitation - 0.01 in0.3 mm - -
Hour Temp Dew Point Humidity Winds Wind Gusts Pressure Precip Precip Rate Daily Precip Total
05:00 PM 68.2°F20.1°C 64.2°F17.9°C 87% 5.8 mph NNE9.3 kmh NNE 12.7 mph20.4 kmh 29.87 in1011.5 mb 0.00 in0.0 mm 0.00 in/hr0.0 mm/hr 0.01 in0.3 mm
04:30 PM 68.5°F20.3°C 63.8°F17.7°C 85% 10.4 mph NNE16.7 kmh NNE 11.5 mph18.5 kmh 29.88 in1011.9 mb 0.00 in0.0 mm 0.00 in/hr0.0 mm/hr 0.01 in0.3 mm
04:00 PM 69.0°F20.6°C 63.6°F17.6°C 83% 5.8 mph NE9.3 kmh NE 12.7 mph20.4 kmh 29.90 in1012.5 mb 0.00 in0.0 mm 0.00 in/hr0.0 mm/hr 0.01 in0.3 mm
03:30 PM 69.6°F20.9°C 63.5°F17.5°C 81% 8.1 mph N13.0 kmh N 10.4 mph16.7 kmh 29.93 in1013.5 mb 0.00 in0.0 mm 0.00 in/hr0.0 mm/hr 0.01 in0.3 mm
02:30 PM 71.0°F21.7°C 70.4°F21.3°C 98% 16.1 mph NNE25.9 kmh NNE 17.3 mph27.8 kmh 29.90 in1012.5 mb 0.00 in0.0 mm 0.00 in/hr0.0 mm/hr 0.01 in0.3 mm
02:00 PM 70.1°F21.2°C 69.5°F20.8°C 98% 9.2 mph NNE14.8 kmh NNE 13.8 mph22.2 kmh 29.92 in1013.2 mb 0.00 in0.0 mm 0.00 in/hr0.0 mm/hr 0.01 in0.3 mm
01:30 PM 69.0°F20.6°C 68.4°F20.2°C 98% 4.6 mph NE7.4 kmh NE 12.7 mph20.4 kmh 29.91 in1012.9 mb 0.00 in0.0 mm 0.00 in/hr0.0 mm/hr 0.01 in0.3 mm
01:00 PM 68.4°F20.2°C 67.8°F19.9°C 98% 9.2 mph NE14.8 kmh NE 15.0 mph24.1 kmh 29.93 in1013.5 mb 0.01 in0.3 mm 0.02 in/hr0.5 mm/hr 0.01 in0.3 mm
12:30 PM 69.2°F20.7°C 68.6°F20.3°C 98% 9.2 mph NNE14.8 kmh NNE 15.0 mph24.1 kmh 29.95 in1014.2 mb 0.00 in0.0 mm 0.00 in/hr0.0 mm/hr 0.00 in0.0 mm
12:00 PM 69.0°F20.6°C 68.4°F20.2°C 98% 5.8 mph NE9.3 kmh NE 10.4 mph16.7 kmh 29.95 in1014.2 mb 0.00 in0.0 mm 0.00 in/hr0.0 mm/hr 0.00 in0.0 mm
11:30 AM 68.3°F20.2°C 67.7°F19.8°C 98% 6.9 mph ENE11.1 kmh ENE 9.2 mph14.8 kmh 29.95 in1014.2 mb 0.00 in0.0 mm 0.00 in/hr0.0 mm/hr 0.00 in0.0 mm
11:00 AM 70.1°F21.2°C 69.6°F20.9°C 98% 9.2 mph ENE14.8 kmh ENE 12.7 mph20.4 kmh 29.96 in1014.6 mb 0.00 in0.0 mm 0.00 in/hr0.0 mm/hr 0.00 in0.0 mm
10:30 AM 69.2°F20.7°C 68.6°F20.3°C 98% 9.2 mph NE14.8 kmh NE 13.8 mph22.2 kmh 29.97 in1014.9 mb 0.00 in0.0 mm 0.00 in/hr0.0 mm/hr 0.00 in0.0 mm
10:00 AM 68.6°F20.3°C 68.0°F20.0°C 98% 5.8 mph E9.3 kmh E 8.1 mph13.0 kmh 29.97 in1014.9 mb 0.00 in0.0 mm 0.00 in/hr0.0 mm/hr 0.00 in0.0 mm
09:30 AM 69.0°F20.6°C 68.4°F20.2°C 98% 5.8 mph NE9.3 kmh NE 9.2 mph14.8 kmh 29.98 in1015.2 mb 0.00 in0.0 mm 0.00 in/hr0.0 mm/hr 0.00 in0.0 mm
09:00 AM 68.0°F20.0°C 67.4°F19.7°C 98% 2.3 mph ESE3.7 kmh ESE 6.9 mph11.1 kmh 29.98 in1015.2 mb 0.00 in0.0 mm 0.00 in/hr0.0 mm/hr 0.00 in0.0 mm
08:30 AM 67.9°F19.9°C 67.3°F19.6°C 98% 3.5 mph ENE5.6 kmh ENE 9.2 mph14.8 kmh 29.98 in1015.2 mb 0.00 in0.0 mm 0.00 in/hr0.0 mm/hr 0.00 in0.0 mm
08:00 AM 67.1°F19.5°C 66.5°F19.2°C 98% 2.3 mph SE3.7 kmh SE 3.5 mph5.6 kmh 29.99 in1015.6 mb 0.00 in0.0 mm 0.00 in/hr0.0 mm/hr 0.00 in0.0 mm
07:30 AM 66.3°F19.1°C 65.7°F18.7°C 98% 6.9 mph E11.1 kmh E 10.4 mph16.7 kmh 30.00 in1015.9 mb 0.00 in0.0 mm 0.00 in/hr0.0 mm/hr 0.00 in0.0 mm
07:00 AM 64.9°F18.3°C 64.4°F18.0°C 98% 3.5 mph NE5.6 kmh NE 5.8 mph9.3 kmh 30.00 in1015.9 mb 0.00 in0.0 mm 0.00 in/hr0.0 mm/hr 0.00 in0.0 mm
06:30 AM 64.4°F18.0°C 63.8°F17.7°C 98% 8.1 mph E13.0 kmh E 10.4 mph16.7 kmh 29.99 in1015.6 mb 0.00 in0.0 mm 0.00 in/hr0.0 mm/hr 0.00 in0.0 mm
06:00 AM 64.3°F17.9°C 63.7°F17.6°C 98% 5.8 mph E9.3 kmh E 6.9 mph11.1 kmh 30.00 in1015.9 mb 0.00 in0.0 mm 0.00 in/hr0.0 mm/hr 0.00 in0.0 mm
05:30 AM 63.4°F17.4°C 62.8°F17.1°C 98% 3.5 mph E5.6 kmh E 5.8 mph9.3 kmh 30.00 in1015.9 mb 0.00 in0.0 mm 0.00 in/hr0.0 mm/hr 0.00 in0.0 mm
05:00 AM 62.9°F17.2°C 62.4°F16.9°C 98% 6.9 mph E11.1 kmh E 8.1 mph13.0 kmh 30.00 in1015.9 mb 0.00 in0.0 mm 0.00 in/hr0.0 mm/hr 0.00 in0.0 mm
04:30 AM 62.8°F17.1°C 62.2°F16.8°C 98% 3.5 mph SE5.6 kmh SE 5.8 mph9.3 kmh 30.00 in1015.9 mb 0.00 in0.0 mm 0.00 in/hr0.0 mm/hr 0.00 in0.0 mm
04:00 AM 62.3°F16.8°C 61.7°F16.5°C 98% 5.8 mph ESE9.3 kmh ESE 6.9 mph11.1 kmh 30.01 in1016.3 mb 0.00 in0.0 mm 0.00 in/hr0.0 mm/hr 0.00 in0.0 mm
03:30 AM 62.0°F16.7°C 61.4°F16.3°C 98% Calm Calm -- 30.02 in1016.6 mb 0.00 in0.0 mm 0.00 in/hr0.0 mm/hr 0.00 in0.0 mm
03:00 AM 62.3°F16.8°C 61.8°F16.6°C 98% 4.6 mph ESE7.4 kmh ESE 5.8 mph9.3 kmh 30.02 in1016.6 mb 0.00 in0.0 mm 0.00 in/hr0.0 mm/hr 0.00 in0.0 mm
02:30 AM 62.2°F16.8°C 61.6°F16.4°C 98% 3.5 mph SE5.6 kmh SE 5.8 mph9.3 kmh 30.02 in1016.6 mb 0.00 in0.0 mm 0.00 in/hr0.0 mm/hr 0.00 in0.0 mm
02:00 AM 62.5°F16.9°C 61.9°F16.6°C 98% 2.3 mph E3.7 kmh E 3.5 mph5.6 kmh 30.03 in1016.9 mb 0.00 in0.0 mm 0.00 in/hr0.0 mm/hr 0.00 in0.0 mm
01:30 AM 62.8°F17.1°C 62.2°F16.8°C 98% 3.5 mph E5.6 kmh E 3.5 mph5.6 kmh 30.03 in1016.9 mb 0.00 in0.0 mm 0.00 in/hr0.0 mm/hr 0.00 in0.0 mm
01:00 AM 63.6°F17.6°C 63.0°F17.2°C 98% 5.8 mph E9.3 kmh E 6.9 mph11.1 kmh 30.04 in1017.3 mb 0.00 in0.0 mm 0.00 in/hr0.0 mm/hr 0.00 in0.0 mm
12:30 AM 63.4°F17.4°C 62.8°F17.1°C 98% 1.2 mph ESE1.9 kmh ESE 2.3 mph3.7 kmh 30.05 in1017.6 mb 0.00 in0.0 mm 0.00 in/hr0.0 mm/hr 0.00 in0.0 mm
12:00 AM 63.6°F17.6°C 63.0°F17.2°C 98% Calm Calm -- 30.06 in1017.9 mb 0.00 in0.0 mm 0.00 in/hr0.0 mm/hr 0.00 in0.0 mm